Time;durP1;ratioP1;P1;durP2;ratioP2;P2;SDS_P1;SDS_P2;PMS_P1;PMS_P2;Temp;Humidity;BMP_temperature;BMP_pressure;BME280_temperature;BME280_humidity;BME280_pressure;Samples;Min_cycle;Max_cycle;Signal;HPM_P1;HPM_P2
2021/10/27 00:01:18;;;;;;;3.92;3.20;;;18.80;63.80;;;;;;6228631;23;20244;-80
2021/10/27 00:03:44;;;;;;;5.10;3.33;;;18.80;63.80;;;;;;6255403;23;20584;-79
2021/10/27 00:06:10;;;;;;;4.53;3.25;;;18.80;64.10;;;;;;6255797;23;20250;-78
2021/10/27 00:08:36;;;;;;;3.88;2.88;;;18.70;63.90;;;;;;6256194;23;20220;-79
2021/10/27 00:11:04;;;;;;;3.83;3.17;;;18.70;64.00;;;;;;6228594;23;20138;-79
2021/10/27 00:13:32;;;;;;;4.45;3.10;;;18.70;63.90;;;;;;6228604;23;20130;-79
2021/10/27 00:15:58;;;;;;;4.53;3.30;;;18.70;63.90;;;;;;6227924;23;20129;-79
2021/10/27 00:18:24;;;;;;;4.00;2.92;;;18.70;64.10;;;;;;6255417;23;20173;-80
2021/10/27 00:20:50;;;;;;;4.57;3.30;;;18.70;64.10;;;;;;6255071;23;20130;-79
2021/10/27 00:23:15;;;;;;;4.82;3.22;;;18.70;64.10;;;;;;6255395;23;20144;-78
2021/10/27 00:25:41;;;;;;;4.10;3.20;;;18.70;64.20;;;;;;6255381;23;20260;-79
2021/10/27 00:28:10;;;;;;;3.45;3.00;;;18.70;64.10;;;;;;6255592;23;20188;-79
2021/10/27 00:30:36;;;;;;;3.67;3.05;;;18.70;64.20;;;;;;6255731;23;20161;-80
2021/10/27 00:33:01;;;;;;;4.45;3.10;;;18.70;64.10;;;;;;6228743;23;20659;-77
2021/10/27 00:35:29;;;;;;;4.43;3.35;;;18.70;64.40;;;;;;6255427;23;20138;-78
2021/10/27 00:37:55;;;;;;;4.22;3.30;;;18.70;64.30;;;;;;6254585;23;20161;-78
2021/10/27 00:40:20;;;;;;;7.00;3.42;;;18.70;64.50;;;;;;6255504;23;20137;-80
2021/10/27 00:42:47;;;;;;;6.50;3.40;;;18.70;64.40;;;;;;6255061;23;20244;-79
2021/10/27 00:45:14;;;;;;;4.68;3.17;;;18.70;64.20;;;;;;6254823;23;20164;-78
2021/10/27 00:47:40;;;;;;;4.00;3.22;;;18.70;64.40;;;;;;6202782;23;20195;-78
2021/10/27 00:50:06;;;;;;;5.60;3.40;;;18.60;64.40;;;;;;6255057;23;20133;-81
2021/10/27 00:52:33;;;;;;;4.50;3.08;;;18.60;65.30;;;;;;6254357;23;20134;-81
2021/10/27 00:55:00;;;;;;;4.72;3.08;;;18.60;64.50;;;;;;6254499;23;20129;-80
2021/10/27 00:57:25;;;;;;;3.78;3.25;;;18.60;64.50;;;;;;6254481;23;20165;-80
2021/10/27 00:59:53;;;;;;;4.00;3.10;;;18.60;64.50;;;;;;6254415;23;20217;-78
2021/10/27 01:02:21;;;;;;;4.95;3.30;;;18.60;64.70;;;;;;6254700;23;20148;-79
2021/10/27 01:04:47;;;;;;;4.95;3.38;;;18.60;64.70;;;;;;6252960;23;20233;-79
2021/10/27 01:07:15;;;;;;;4.82;3.20;;;18.60;64.60;;;;;;6255150;23;20156;-79
2021/10/27 01:09:47;;;;;;;7.18;3.50;;;18.60;64.70;;;;;;6227814;23;20649;-78
2021/10/27 01:12:13;;;;;;;3.92;3.17;;;18.60;64.70;;;;;;6227622;23;20141;-79
2021/10/27 01:14:41;;;;;;;5.38;3.30;;;18.60;64.50;;;;;;6254372;23;20202;-80
2021/10/27 01:17:08;;;;;;;4.80;3.42;;;18.60;64.70;;;;;;6227870;23;20125;-79
2021/10/27 01:19:46;;;;;;;5.95;3.38;;;18.60;64.70;;;;;;6227041;23;20136;-79
2021/10/27 01:22:13;;;;;;;5.78;3.05;;;18.60;64.70;;;;;;6228487;23;20130;-79
2021/10/27 01:24:39;;;;;;;4.22;3.30;;;18.50;64.60;;;;;;6254488;23;20145;-78
2021/10/27 01:27:04;;;;;;;4.47;3.22;;;18.60;64.70;;;;;;6254062;23;20527;-78
2021/10/27 01:29:31;;;;;;;4.50;3.38;;;18.50;64.70;;;;;;6254312;23;20469;-80
2021/10/27 01:31:57;;;;;;;4.28;3.28;;;18.50;64.80;;;;;;6254643;23;20145;-80
2021/10/27 01:34:23;;;;;;;3.85;3.40;;;18.50;64.70;;;;;;6254644;23;20624;-79
2021/10/27 01:36:51;;;;;;;4.45;3.10;;;18.50;64.70;;;;;;6254164;23;20137;-78
2021/10/27 01:39:19;;;;;;;4.38;3.22;;;18.50;64.70;;;;;;6254333;23;20169;-79
2021/10/27 01:41:44;;;;;;;5.72;3.03;;;18.50;64.90;;;;;;6227468;23;20152;-82
2021/10/27 01:44:11;;;;;;;4.65;2.92;;;18.50;64.90;;;;;;6254619;23;20145;-80
2021/10/27 01:46:37;;;;;;;4.72;2.85;;;18.50;64.70;;;;;;6253311;23;20137;-81
2021/10/27 01:49:08;;;;;;;3.38;2.80;;;18.50;64.80;;;;;;6227301;23;20134;-81
2021/10/27 01:51:34;;;;;;;4.65;3.00;;;18.60;64.90;;;;;;6254286;23;20206;-78
2021/10/27 01:54:00;;;;;;;4.22;3.10;;;18.50;64.80;;;;;;6253767;23;20137;-79
2021/10/27 01:56:25;;;;;;;4.68;3.55;;;18.50;64.80;;;;;;6253681;23;20138;-79
2021/10/27 01:58:52;;;;;;;5.75;3.40;;;18.50;64.90;;;;;;6254162;23;20172;-79
2021/10/27 02:01:18;;;;;;;3.80;2.97;;;18.50;64.90;;;;;;6253771;23;20140;-80
2021/10/27 02:03:44;;;;;;;3.92;3.03;;;18.50;64.90;;;;;;6227136;23;20138;-77
2021/10/27 02:06:11;;;;;;;4.03;2.90;;;18.50;65.00;;;;;;6226703;23;20193;-79
2021/10/27 02:08:37;;;;;;;4.22;3.00;;;18.40;64.80;;;;;;6254593;23;20141;-79
2021/10/27 02:11:03;;;;;;;4.18;3.03;;;18.50;64.80;;;;;;6227231;23;20148;-79
2021/10/27 02:13:29;;;;;;;5.43;2.92;;;18.50;64.90;;;;;;6254796;23;20569;-78
2021/10/27 02:15:57;;;;;;;5.90;3.25;;;18.50;64.90;;;;;;6255799;23;20149;-79
2021/10/27 02:18:24;;;;;;;3.42;2.92;;;18.50;65.00;;;;;;6228331;23;20165;-78
2021/10/27 02:20:51;;;;;;;3.88;3.10;;;18.50;64.80;;;;;;6228551;23;20130;-78
2021/10/27 02:23:17;;;;;;;4.15;3.30;;;18.50;64.90;;;;;;6255808;23;20226;-80
2021/10/27 02:25:43;;;;;;;3.42;2.97;;;18.50;64.90;;;;;;6229168;23;20130;-79
2021/10/27 02:28:10;;;;;;;5.15;3.15;;;18.50;64.90;;;;;;6255259;23;20565;-79
2021/10/27 02:30:37;;;;;;;3.22;2.92;;;18.50;65.10;;;;;;6256294;23;20499;-78
2021/10/27 02:33:04;;;;;;;5.85;3.13;;;18.40;65.10;;;;;;6255994;23;20549;-78
2021/10/27 02:35:30;;;;;;;3.55;3.05;;;18.40;64.90;;;;;;6255655;23;20629;-78
2021/10/27 02:37:58;;;;;;;3.78;3.30;;;18.40;65.00;;;;;;6255580;23;20166;-80
2021/10/27 02:40:24;;;;;;;4.72;3.20;;;18.50;65.00;;;;;;6228897;23;20134;-80
2021/10/27 02:42:50;;;;;;;4.30;2.88;;;18.50;64.90;;;;;;6229021;23;20191;-78
2021/10/27 02:45:16;;;;;;;4.53;2.75;;;18.50;64.80;;;;;;6255596;23;20212;-79
2021/10/27 02:47:43;;;;;;;4.85;3.17;;;18.40;64.80;;;;;;6255964;23;20141;-79
2021/10/27 02:50:11;;;;;;;4.93;3.08;;;18.50;64.90;;;;;;6229206;23;20129;-79
2021/10/27 02:52:36;;;;;;;4.15;3.13;;;18.50;64.80;;;;;;6229358;23;20203;-78
2021/10/27 02:55:04;;;;;;;3.42;3.13;;;18.50;64.90;;;;;;6255402;23;20225;-79
2021/10/27 02:57:29;;;;;;;3.80;3.40;;;18.50;64.90;;;;;;6228172;23;20173;-78
2021/10/27 02:59:56;;;;;;;4.95;3.22;;;18.50;64.90;;;;;;6255964;23;20157;-78
2021/10/27 03:02:25;;;;;;;4.72;3.17;;;18.40;64.90;;;;;;6255821;23;20195;-78
2021/10/27 03:04:51;;;;;;;4.18;3.15;;;18.40;65.00;;;;;;6255384;23;20189;-80
2021/10/27 03:07:21;;;;;;;3.58;3.10;;;18.40;65.00;;;;;;6255752;23;20473;-78
2021/10/27 03:09:47;;;;;;;3.40;2.70;;;18.50;65.10;;;;;;6255326;23;20176;-77
2021/10/27 03:12:14;;;;;;;3.47;2.95;;;18.50;64.40;;;;;;6255200;23;20160;-80
2021/10/27 03:14:42;;;;;;;3.67;2.90;;;18.50;64.00;;;;;;6255422;23;20496;-78
2021/10/27 03:17:09;;;;;;;3.88;2.90;;;18.50;63.80;;;;;;6255880;23;20134;-79
2021/10/27 03:19:34;;;;;;;3.60;2.75;;;18.60;63.60;;;;;;6256630;23;20177;-79
2021/10/27 03:22:00;;;;;;;3.13;2.83;;;18.60;63.50;;;;;;6257607;23;20507;-79
2021/10/27 03:24:25;;;;;;;3.70;3.20;;;18.70;63.60;;;;;;6229643;23;20185;-78
2021/10/27 03:26:51;;;;;;;3.65;2.90;;;18.70;63.60;;;;;;6256829;23;20130;-78
2021/10/27 03:29:20;;;;;;;3.83;3.05;;;18.70;63.20;;;;;;6256368;23;20591;-80
2021/10/27 03:31:45;;;;;;;4.57;2.95;;;18.70;63.10;;;;;;6257089;23;20137;-79
2021/10/27 03:34:11;;;;;;;4.90;2.95;;;18.80;63.20;;;;;;6230058;23;20134;-78
2021/10/27 03:36:37;;;;;;;3.38;2.83;;;18.80;63.10;;;;;;6257511;23;20153;-77
2021/10/27 03:39:06;;;;;;;4.38;2.72;;;18.80;63.10;;;;;;6257449;23;20611;-78
2021/10/27 03:41:32;;;;;;;3.45;2.70;;;18.80;62.90;;;;;;6256730;23;20133;-77
2021/10/27 03:43:59;;;;;;;3.33;2.80;;;18.80;62.80;;;;;;6256869;23;20187;-80
2021/10/27 03:46:25;;;;;;;4.00;2.90;;;18.80;62.80;;;;;;6255896;23;20133;-78
2021/10/27 03:48:52;;;;;;;3.90;3.40;;;18.90;62.80;;;;;;6257010;23;20153;-79
2021/10/27 03:51:18;;;;;;;4.28;2.78;;;18.90;62.50;;;;;;6255972;23;20129;-81
2021/10/27 03:53:43;;;;;;;5.13;3.00;;;18.90;62.10;;;;;;6229109;23;20219;-77
2021/10/27 03:56:09;;;;;;;3.80;2.80;;;18.90;62.10;;;;;;6229702;23;20608;-78
2021/10/27 03:58:35;;;;;;;3.20;2.63;;;18.90;62.00;;;;;;6230150;23;20170;-77
2021/10/27 04:01:01;;;;;;;2.95;2.60;;;18.90;62.10;;;;;;6257068;23;20499;-79
2021/10/27 04:03:26;;;;;;;3.55;2.55;;;18.90;62.00;;;;;;6256908;23;20147;-79
2021/10/27 04:05:55;;;;;;;3.28;2.80;;;18.90;62.00;;;;;;6256035;23;20193;-79
2021/10/27 04:08:21;;;;;;;2.92;2.63;;;19.00;62.00;;;;;;6229647;23;20189;-79
2021/10/27 04:10:46;;;;;;;4.38;2.88;;;19.00;61.90;;;;;;6229393;23;20137;-79
2021/10/27 04:13:16;;;;;;;3.10;2.80;;;19.00;61.60;;;;;;6229747;23;20184;-78
2021/10/27 04:15:42;;;;;;;3.00;2.60;;;19.00;61.60;;;;;;6230147;23;20133;-78
2021/10/27 04:18:08;;;;;;;4.13;2.90;;;19.00;61.60;;;;;;6229256;23;20175;-78
2021/10/27 04:20:34;;;;;;;3.80;2.95;;;19.00;61.80;;;;;;6257371;23;20156;-79
2021/10/27 04:23:00;;;;;;;4.13;2.50;;;19.00;61.80;;;;;;6255997;23;20134;-79
2021/10/27 04:25:28;;;;;;;2.95;2.60;;;19.00;61.40;;;;;;6256478;23;20450;-79
2021/10/27 04:27:53;;;;;;;3.08;2.72;;;19.00;61.20;;;;;;6256448;23;20133;-77
2021/10/27 04:30:20;;;;;;;4.72;2.65;;;19.10;61.30;;;;;;6256579;23;20133;-79
2021/10/27 04:32:48;;;;;;;2.72;2.50;;;19.10;61.20;;;;;;6256910;23;20137;-79
2021/10/27 04:35:13;;;;;;;3.70;2.70;;;19.10;60.70;;;;;;6257089;23;20134;-79
2021/10/27 04:37:45;;;;;;;4.05;2.90;;;19.10;61.30;;;;;;6257165;23;20244;-78
2021/10/27 04:40:13;;;;;;;3.78;2.90;;;19.10;61.20;;;;;;6257471;23;20126;-79
2021/10/27 04:42:46;;;;;;;3.83;2.67;;;19.10;61.10;;;;;;6229805;23;20434;-78
2021/10/27 04:45:12;;;;;;;4.18;2.90;;;19.10;60.80;;;;;;6230010;23;20149;-77
2021/10/27 04:47:42;;;;;;;2.90;2.53;;;19.10;61.80;;;;;;6257444;23;20133;-79
2021/10/27 04:50:09;;;;;;;3.40;2.78;;;19.20;60.70;;;;;;6230249;23;20129;-78
2021/10/27 04:52:35;;;;;;;3.47;2.47;;;19.20;60.70;;;;;;6256789;23;20184;-78
2021/10/27 04:55:01;;;;;;;3.00;2.58;;;19.20;60.60;;;;;;6257488;23;20224;-78
2021/10/27 04:57:27;;;;;;;3.97;2.70;;;19.20;60.70;;;;;;6256918;23;20140;-77
2021/10/27 04:59:52;;;;;;;3.13;2.60;;;19.20;60.70;;;;;;6257723;23;20134;-78
2021/10/27 05:02:18;;;;;;;3.35;2.75;;;19.20;60.70;;;;;;6230621;23;20137;-77
2021/10/27 05:04:44;;;;;;;3.63;2.65;;;19.20;60.60;;;;;;6230882;23;20494;-77
2021/10/27 05:07:15;;;;;;;2.80;2.20;;;19.20;60.60;;;;;;6230451;23;20142;-77
2021/10/27 05:09:42;;;;;;;3.42;2.60;;;19.20;60.50;;;;;;6257577;23;20130;-78
2021/10/27 05:12:10;;;;;;;2.97;2.60;;;19.20;60.40;;;;;;6230464;23;20175;-78
2021/10/27 05:14:37;;;;;;;4.45;2.75;;;19.20;60.30;;;;;;6256976;23;20137;-77
2021/10/27 05:17:06;;;;;;;4.68;2.60;;;19.20;60.60;;;;;;6229358;23;20172;-78
2021/10/27 05:19:37;;;;;;;4.32;2.75;;;19.20;60.50;;;;;;6256467;23;20165;-79
2021/10/27 05:22:04;;;;;;;2.92;2.63;;;19.20;60.20;;;;;;6230666;23;20546;-78
2021/10/27 05:24:30;;;;;;;3.35;2.83;;;19.20;60.30;;;;;;6222419;23;20220;-79
2021/10/27 05:26:55;;;;;;;2.83;2.55;;;19.20;60.20;;;;;;6246755;23;20134;-81
2021/10/27 05:29:24;;;;;;;3.10;2.80;;;19.30;60.20;;;;;;6230691;23;20441;-78
2021/10/27 05:31:54;;;;;;;2.55;2.35;;;19.20;60.40;;;;;;6234039;23;20166;-78
2021/10/27 05:34:20;;;;;;;3.53;2.72;;;19.20;60.30;;;;;;6233829;23;20133;-79
2021/10/27 05:36:47;;;;;;;3.95;2.70;;;19.30;60.30;;;;;;6206972;23;20169;-81
2021/10/27 05:39:13;;;;;;;3.05;2.50;;;19.20;60.10;;;;;;6251192;23;20161;-81
2021/10/27 05:41:43;;;;;;;3.53;2.22;;;19.30;60.10;;;;;;6249914;23;20129;-80
2021/10/27 05:44:09;;;;;;;3.40;2.60;;;19.30;59.90;;;;;;6224590;23;20130;-81
2021/10/27 05:46:36;;;;;;;3.65;2.50;;;19.30;60.00;;;;;;6224312;23;20189;-82
2021/10/27 05:49:12;;;;;;;3.03;2.40;;;19.30;60.10;;;;;;6252268;23;20155;-82
2021/10/27 05:51:45;;;;;;;3.63;2.30;;;19.20;60.20;;;;;;6228519;23;20129;-80
2021/10/27 05:56:55;;;;;;;3.22;2.75;;;19.30;60.10;;;;;;6230220;23;20136;-81
2021/10/27 05:59:22;;;;;;;2.92;2.42;;;19.20;60.10;;;;;;6252891;23;20225;-80
2021/10/27 06:01:48;;;;;;;2.55;2.35;;;19.30;60.00;;;;;;6252969;23;20468;-81
2021/10/27 06:04:16;;;;;;;3.20;2.60;;;19.20;60.00;;;;;;6227634;23;20129;-80
2021/10/27 06:06:42;;;;;;;3.90;2.60;;;19.20;60.00;;;;;;6202377;23;20197;-79
2021/10/27 06:09:07;;;;;;;3.13;2.63;;;19.20;59.70;;;;;;6226673;23;20184;-80
2021/10/27 06:11:33;;;;;;;2.65;2.45;;;19.30;59.70;;;;;;6227734;23;20585;-81
2021/10/27 06:14:01;;;;;;;3.22;2.60;;;19.30;60.20;;;;;;6228824;23;20149;-81
2021/10/27 06:16:27;;;;;;;2.83;2.30;;;19.30;60.00;;;;;;6254679;23;20164;-80
2021/10/27 06:18:53;;;;;;;2.70;2.45;;;19.30;59.60;;;;;;6259971;23;20256;-80
2021/10/27 06:21:24;;;;;;;2.63;2.42;;;19.30;59.60;;;;;;6226539;23;20149;-87
2021/10/27 06:23:50;;;;;;;2.88;2.28;;;19.20;59.60;;;;;;6200776;23;20153;-86
2021/10/27 06:26:19;;;;;;;3.55;2.33;;;19.30;59.20;;;;;;6198301;23;20176;-89
2021/10/27 06:28:58;;;;;;;2.50;2.20;;;19.30;59.10;;;;;;6197503;23;20176;-86
2021/10/27 06:31:32;;;;;;;2.42;2.22;;;19.30;59.20;;;;;;6203275;23;20224;-86
2021/10/27 06:34:08;;;;;;;3.40;2.42;;;19.30;58.70;;;;;;6159627;23;20237;-86
2021/10/27 06:36:53;;;;;;;2.60;2.35;;;19.30;59.20;;;;;;6134051;23;20170;-85
2021/10/27 06:45:54;;;;;;;2.88;2.53;;;19.30;59.50;;;;;;6113040;23;20259;-85
2021/10/27 06:47:58;;;;;;;3.05;2.40;;;19.30;59.40;;;;;;6136395;23;20214;-85
2021/10/27 06:50:24;;;;;;;3.17;2.40;;;19.30;59.60;;;;;;6083967;23;20155;-85
2021/10/27 06:52:50;;;;;;;2.90;2.30;;;19.30;59.30;;;;;;6109985;23;20499;-84
2021/10/27 06:55:16;;;;;;;3.05;2.40;;;19.30;59.30;;;;;;6133691;23;20222;-85
2021/10/27 06:57:46;;;;;;;3.75;2.83;;;19.30;59.40;;;;;;6111103;23;20664;-84
2021/10/27 07:00:18;;;;;;;2.92;2.50;;;19.30;59.30;;;;;;6048519;23;20520;-79
2021/10/27 07:03:03;;;;;;;3.10;2.55;;;19.30;59.30;;;;;;6096655;23;20152;-79
2021/10/27 07:05:53;;;;;;;3.78;2.50;;;19.30;58.90;;;;;;6158295;23;20190;-78
2021/10/27 07:16:16;;;;;;;3.65;2.78;;;19.30;59.90;;;;;;6184003;23;20131;-78
2021/10/27 07:18:41;;;;;;;2.50;2.30;;;19.40;60.50;;;;;;6159133;23;20181;-79
2021/10/27 07:21:07;;;;;;;3.30;2.72;;;19.40;60.30;;;;;;6184084;23;20151;-79
2021/10/27 07:23:34;;;;;;;3.58;2.50;;;19.40;60.00;;;;;;6184380;23;20526;-79
2021/10/27 07:25:59;;;;;;;3.72;2.50;;;19.40;59.20;;;;;;6159548;23;20233;-79
2021/10/27 07:28:26;;;;;;;3.83;2.40;;;19.40;59.50;;;;;;6159205;23;20143;-79
2021/10/27 07:30:53;;;;;;;3.63;2.67;;;19.50;58.80;;;;;;6184897;23;20158;-78
2021/10/27 07:33:19;;;;;;;4.47;2.45;;;19.50;58.90;;;;;;6186291;23;20135;-78
2021/10/27 07:35:53;;;;;;;2.72;2.30;;;19.50;58.90;;;;;;6186528;23;20230;-79
2021/10/27 07:40:56;;;;;;;4.45;2.80;;;19.40;58.70;;;;;;6185907;23;20131;-79
2021/10/27 07:43:26;;;;;;;2.80;2.33;;;19.50;58.90;;;;;;6184772;23;20443;-78
2021/10/27 07:45:53;;;;;;;4.75;2.92;;;19.60;58.60;;;;;;6185811;23;20127;-79
2021/10/27 07:48:19;;;;;;;2.42;2.10;;;19.50;58.80;;;;;;6184748;23;20142;-78
2021/10/27 07:50:44;;;;;;;2.60;2.40;;;19.50;59.10;;;;;;6185891;23;20531;-78
2021/10/27 07:53:11;;;;;;;3.10;2.35;;;19.50;59.10;;;;;;6185881;23;20203;-78
2021/10/27 07:55:39;;;;;;;3.53;2.50;;;19.50;58.90;;;;;;6186923;23;20138;-77
2021/10/27 07:58:05;;;;;;;3.72;2.95;;;19.50;58.90;;;;;;6186032;23;20198;-78
2021/10/27 08:00:31;;;;;;;3.08;2.58;;;19.50;59.40;;;;;;6186235;23;20131;-79
2021/10/27 08:03:00;;;;;;;3.30;2.80;;;19.50;59.40;;;;;;6159028;23;20150;-79
2021/10/27 08:05:29;;;;;;;3.33;2.40;;;19.50;59.80;;;;;;6167006;23;20194;-79
2021/10/27 08:07:54;;;;;;;3.40;2.50;;;19.50;59.70;;;;;;6216993;23;20515;-79
2021/10/27 08:10:20;;;;;;;3.70;2.55;;;19.60;59.60;;;;;;6219024;23;20144;-80
2021/10/27 08:12:47;;;;;;;3.35;2.78;;;19.60;59.90;;;;;;6217635;23;20215;-80
2021/10/27 08:15:13;;;;;;;3.30;2.40;;;19.50;59.80;;;;;;6215888;23;20214;-79
2021/10/27 08:17:40;;;;;;;3.25;2.50;;;19.60;59.80;;;;;;6215551;23;20150;-80
2021/10/27 08:20:07;;;;;;;3.28;2.58;;;19.60;59.80;;;;;;6221628;23;20156;-80
2021/10/27 08:22:33;;;;;;;3.72;2.33;;;19.60;60.00;;;;;;6216465;23;20629;-80
2021/10/27 08:25:02;;;;;;;2.88;2.53;;;19.60;59.90;;;;;;6217255;23;20139;-80
2021/10/27 08:27:30;;;;;;;3.42;2.65;;;19.60;59.90;;;;;;6216463;23;20217;-79
2021/10/27 08:30:02;;;;;;;3.65;2.30;;;19.60;60.10;;;;;;6216696;23;20154;-78
2021/10/27 08:32:40;;;;;;;4.40;2.22;;;19.60;60.30;;;;;;6193189;23;20146;-77
2021/10/27 08:35:06;;;;;;;4.13;2.40;;;19.60;59.90;;;;;;6215251;23;20180;-78
2021/10/27 08:37:31;;;;;;;4.78;2.45;;;19.60;60.10;;;;;;6215217;23;20474;-78
2021/10/27 08:40:36;;;;;;;4.80;2.50;;;19.50;60.00;;;;;;6214020;23;20138;-78
2021/10/27 08:43:02;;;;;;;5.20;2.78;;;19.60;59.60;;;;;;6127954;23;20162;-78
2021/10/27 08:45:28;;;;;;;3.03;2.13;;;19.60;60.30;;;;;;6103773;23;20202;-78
2021/10/27 08:47:54;;;;;;;2.83;2.53;;;19.60;59.90;;;;;;6151256;23;20152;-78
2021/10/27 08:50:21;;;;;;;3.35;2.30;;;19.50;60.10;;;;;;6150212;23;20155;-76
2021/10/27 08:52:47;;;;;;;2.70;2.10;;;19.60;59.70;;;;;;6102168;23;20260;-78
2021/10/27 08:55:14;;;;;;;2.80;2.60;;;19.60;59.50;;;;;;6153142;23;20186;-77
2021/10/27 08:57:43;;;;;;;2.63;2.35;;;19.60;59.90;;;;;;6153536;23;20222;-78
2021/10/27 09:00:21;;;;;;;3.33;2.38;;;19.60;59.80;;;;;;6153057;23;20173;-78
2021/10/27 09:05:36;;;;;;;3.22;2.40;;;19.70;59.70;;;;;;6152673;23;20198;-77
2021/10/27 09:08:21;;;;;;;2.60;2.20;;;19.60;59.30;;;;;;6152626;23;20186;-79
2021/10/27 09:16:55;;;;;;;4.82;2.70;;;19.70;59.60;;;;;;6215246;23;20168;-78
2021/10/27 09:41:40;;;;;;;2.78;2.50;;;19.70;59.50;;;;;;6167128;23;20254;-78
2021/10/27 09:47:29;;;;;;;2.90;2.50;;;19.60;59.60;;;;;;6164675;23;20131;-78
2021/10/27 10:06:24;;;;;;;4.07;2.20;;;19.70;59.40;;;;;;6188308;23;20225;-78
2021/10/27 10:08:50;;;;;;;3.22;2.42;;;19.70;59.60;;;;;;6219176;23;20184;-78
2021/10/27 10:11:16;;;;;;;2.67;2.40;;;19.70;59.70;;;;;;6219000;23;20566;-78
2021/10/27 10:13:44;;;;;;;7.05;2.85;;;19.60;59.60;;;;;;6216401;23;20126;-78
2021/10/27 10:16:10;;;;;;;3.25;2.60;;;19.60;60.70;;;;;;6218177;23;20213;-78
2021/10/27 10:18:37;;;;;;;4.95;2.70;;;19.70;59.90;;;;;;6216407;23;20208;-78
2021/10/27 10:21:02;;;;;;;2.78;2.33;;;19.60;60.10;;;;;;6218293;23;20138;-78
2021/10/27 10:23:28;;;;;;;3.75;2.40;;;19.60;59.70;;;;;;6218306;23;20232;-78
2021/10/27 10:26:00;;;;;;;3.67;2.55;;;19.70;59.70;;;;;;6218552;23;20508;-78
2021/10/27 10:28:26;;;;;;;4.97;2.42;;;19.70;59.90;;;;;;6216878;23;20146;-77
2021/10/27 10:30:56;;;;;;;2.67;2.30;;;19.70;59.80;;;;;;6217154;23;20145;-78
2021/10/27 10:33:36;;;;;;;3.97;2.47;;;19.70;59.90;;;;;;6216864;23;20165;-77
2021/10/27 10:36:08;;;;;;;3.15;2.10;;;19.70;59.80;;;;;;6216701;23;20126;-78
2021/10/27 10:44:42;;;;;;;3.67;2.35;;;19.70;59.70;;;;;;6215420;23;20154;-78
2021/10/27 11:02:15;;;;;;;2.85;2.10;;;19.60;59.40;;;;;;6216541;23;20240;-78
2021/10/27 11:15:13;;;;;;;2.65;2.30;;;19.70;59.30;;;;;;6215119;23;20212;-78
2021/10/27 11:24:46;;;;;;;2.25;1.88;;;19.60;59.90;;;;;;6215536;23;20138;-79
2021/10/27 11:38:22;;;;;;;2.28;2.08;;;19.60;60.00;;;;;;6215437;23;20174;-80
2021/10/27 11:40:54;;;;;;;3.17;2.30;;;19.70;59.80;;;;;;6217181;23;20134;-80
2021/10/27 11:46:09;;;;;;;4.78;2.20;;;19.70;59.90;;;;;;6216528;23;20130;-81
2021/10/27 11:48:54;;;;;;;2.40;2.20;;;19.70;59.70;;;;;;6214597;23;20652;-79
2021/10/27 11:51:20;;;;;;;5.40;2.17;;;19.60;60.00;;;;;;6216131;23;20566;-79
2021/10/27 11:53:46;;;;;;;2.70;2.35;;;19.70;59.80;;;;;;6213807;23;20260;-79
2021/10/27 11:56:17;;;;;;;3.40;2.30;;;19.70;60.00;;;;;;6214368;23;20177;-79
2021/10/27 11:58:45;;;;;;;2.38;2.17;;;19.70;60.10;;;;;;6217179;23;20244;-80
2021/10/27 12:01:28;;;;;;;3.13;2.38;;;19.70;60.00;;;;;;6217438;23;20184;-81
2021/10/27 12:03:57;;;;;;;2.55;2.03;;;19.60;59.80;;;;;;6216700;23;20597;-80
2021/10/27 12:06:33;;;;;;;2.72;2.25;;;19.70;59.90;;;;;;6235314;23;20216;-79
2021/10/27 12:09:14;;;;;;;2.92;2.30;;;19.70;59.80;;;;;;6222211;23;20179;-79
2021/10/27 12:14:23;;;;;;;3.78;2.60;;;19.70;59.80;;;;;;6222097;23;20130;-78
2021/10/27 12:19:26;;;;;;;2.75;2.15;;;19.70;60.00;;;;;;6245656;23;20481;-79
2021/10/27 12:22:03;;;;;;;3.63;1.90;;;19.60;59.90;;;;;;6244917;23;20183;-79
2021/10/27 12:24:30;;;;;;;2.92;2.33;;;19.60;59.80;;;;;;6244407;23;20133;-79
2021/10/27 12:27:02;;;;;;;2.15;1.92;;;19.70;60.00;;;;;;6246626;23;20212;-79
2021/10/27 12:29:34;;;;;;;2.47;2.10;;;19.60;60.10;;;;;;6219574;23;20184;-79
2021/10/27 12:32:10;;;;;;;3.85;2.00;;;19.60;60.00;;;;;;6195330;23;20141;-79
2021/10/27 12:34:45;;;;;;;3.47;2.20;;;19.70;59.90;;;;;;6215143;23;20129;-79
2021/10/27 12:37:37;;;;;;;3.83;2.28;;;19.70;60.30;;;;;;6193953;23;20152;-80
2021/10/27 12:40:13;;;;;;;3.67;2.08;;;19.60;60.10;;;;;;6220102;23;20161;-79
2021/10/27 12:42:39;;;;;;;2.65;2.38;;;19.70;60.30;;;;;;6195039;23;20156;-79
2021/10/27 12:45:05;;;;;;;2.97;2.33;;;19.70;60.30;;;;;;6246302;23;20142;-80
2021/10/27 12:47:33;;;;;;;3.60;2.22;;;19.70;60.40;;;;;;6217546;23;20156;-79
2021/10/27 12:50:09;;;;;;;2.08;1.88;;;19.70;60.40;;;;;;6217923;23;20148;-79
2021/10/27 12:52:45;;;;;;;2.92;2.20;;;19.60;60.40;;;;;;6243805;23;20137;-79
2021/10/27 12:55:13;;;;;;;3.38;2.15;;;19.70;60.40;;;;;;6219491;23;20141;-80
2021/10/27 12:58:10;;;;;;;2.80;2.55;;;19.70;60.20;;;;;;6217349;23;20141;-79
2021/10/27 13:09:21;;;;;;;3.50;2.35;;;19.70;60.40;;;;;;6214846;23;20451;-79
2021/10/27 13:12:04;;;;;;;2.35;2.15;;;19.70;60.40;;;;;;6214836;23;20629;-79
2021/10/27 13:15:01;;;;;;;2.97;2.30;;;19.70;60.40;;;;;;6218389;23;20205;-78
2021/10/27 13:22:44;;;;;;;2.33;2.05;;;19.70;60.30;;;;;;6213957;23;20134;-78
2021/10/27 13:30:34;;;;;;;2.60;2.00;;;19.80;60.40;;;;;;6216049;23;20615;-81
2021/10/27 13:33:03;;;;;;;2.92;2.17;;;19.70;60.40;;;;;;6192939;23;20149;-79
2021/10/27 13:35:28;;;;;;;2.85;2.15;;;19.70;60.40;;;;;;6219110;23;20142;-78
2021/10/27 13:37:54;;;;;;;2.45;2.25;;;19.70;60.40;;;;;;6214972;23;20270;-80
2021/10/27 13:40:20;;;;;;;2.10;1.90;;;19.70;60.40;;;;;;6215657;23;20134;-78
2021/10/27 13:42:51;;;;;;;3.10;2.08;;;19.70;60.40;;;;;;6217147;23;20156;-80
2021/10/27 13:45:25;;;;;;;3.10;2.08;;;19.70;60.50;;;;;;6215450;23;20435;-79
2021/10/27 14:09:16;;;;;;;2.05;1.85;;;19.70;60.70;;;;;;6215478;23;20134;-80
2021/10/27 14:11:56;;;;;;;2.85;2.22;;;19.70;60.80;;;;;;6215682;23;20133;-80
2021/10/27 14:14:37;;;;;;;2.25;2.05;;;19.70;60.90;;;;;;6217423;23;20126;-80
2021/10/27 14:20:12;;;;;;;3.50;2.15;;;19.70;60.90;;;;;;6217334;23;20170;-80
2021/10/27 14:22:48;;;;;;;3.10;2.03;;;19.70;61.00;;;;;;6215565;23;20455;-81
2021/10/27 15:21:10;;;;;;;3.45;2.10;;;19.70;61.30;;;;;;6250393;23;20137;-82
2021/10/27 15:23:51;;;;;;;2.88;2.25;;;19.80;61.30;;;;;;6224394;23;20129;-81
2021/10/27 15:34:35;;;;;;;2.58;2.05;;;19.70;61.80;;;;;;6245918;23;20160;-81
2021/10/27 15:37:17;;;;;;;2.30;1.80;;;19.80;61.90;;;;;;6246922;23;20125;-81
2021/10/27 15:42:34;;;;;;;2.00;1.80;;;19.80;62.00;;;;;;6224201;23;20134;-82
2021/10/27 15:45:15;;;;;;;2.67;2.28;;;19.80;61.60;;;;;;6247304;23;20149;-82
2021/10/27 15:53:01;;;;;;;4.25;2.20;;;19.80;62.30;;;;;;6249027;23;20133;-80
2021/10/27 15:55:27;;;;;;;4.03;2.08;;;19.80;62.00;;;;;;6247939;23;20138;-82
2021/10/27 15:57:53;;;;;;;2.85;1.98;;;19.80;62.40;;;;;;6247024;23;20148;-81
2021/10/27 16:00:27;;;;;;;4.88;1.90;;;19.80;62.10;;;;;;6247095;23;20144;-81
2021/10/27 16:02:53;;;;;;;5.05;2.40;;;19.80;62.50;;;;;;6246218;23;20264;-81
2021/10/27 16:05:19;;;;;;;2.50;2.17;;;19.90;62.80;;;;;;6188649;23;20560;-80
2021/10/27 16:07:47;;;;;;;2.50;2.30;;;19.80;62.50;;;;;;6188594;23;20253;-81
2021/10/27 16:10:16;;;;;;;4.70;2.22;;;19.80;62.10;;;;;;6214413;23;20257;-82
2021/10/27 16:12:43;;;;;;;3.40;2.08;;;19.80;62.30;;;;;;6191620;23;20235;-81
2021/10/27 16:15:14;;;;;;;2.67;2.10;;;19.90;62.10;;;;;;6215479;23;20142;-82
2021/10/27 16:17:40;;;;;;;2.20;2.00;;;19.90;62.20;;;;;;6216826;23;20134;-82
2021/10/27 16:20:06;;;;;;;2.78;1.95;;;19.90;62.10;;;;;;6189666;23;20146;-81
2021/10/27 16:22:34;;;;;;;2.38;1.98;;;19.90;62.30;;;;;;6216832;23;20143;-81
2021/10/27 16:25:00;;;;;;;2.75;1.92;;;19.90;62.30;;;;;;6215931;23;20558;-80
2021/10/27 16:27:26;;;;;;;2.42;2.13;;;19.90;61.80;;;;;;6188962;23;20149;-80
2021/10/27 16:29:52;;;;;;;2.80;2.10;;;19.90;62.30;;;;;;6215583;23;20138;-80
2021/10/27 16:32:18;;;;;;;3.35;2.15;;;19.80;61.90;;;;;;6215577;23;20134;-80
2021/10/27 16:34:44;;;;;;;3.10;2.22;;;19.90;62.40;;;;;;6216061;23;20130;-82
2021/10/27 16:37:10;;;;;;;3.70;2.38;;;19.90;62.30;;;;;;6216365;23;20142;-81
2021/10/27 16:39:36;;;;;;;2.58;1.80;;;19.90;62.50;;;;;;6215529;23;20170;-80
2021/10/27 16:42:02;;;;;;;4.57;2.25;;;19.90;62.60;;;;;;6189604;23;20313;-81
2021/10/27 16:44:28;;;;;;;3.08;2.10;;;19.90;62.60;;;;;;6216042;23;20134;-82
2021/10/27 16:46:54;;;;;;;3.25;1.98;;;19.90;62.70;;;;;;6215167;23;20172;-81
2021/10/27 16:49:19;;;;;;;2.45;2.00;;;19.90;62.90;;;;;;6214669;23;20158;-82
2021/10/27 16:51:45;;;;;;;4.80;2.33;;;19.90;63.30;;;;;;6191072;23;20145;-81
2021/10/27 16:54:11;;;;;;;3.72;1.90;;;20.00;62.90;;;;;;6215924;23;20134;-81
2021/10/27 16:56:37;;;;;;;3.67;1.90;;;20.00;63.00;;;;;;6191691;23;20166;-81
2021/10/27 16:59:02;;;;;;;7.47;2.05;;;20.00;63.40;;;;;;6215000;23;20181;-80